Laupahoehoe, HI (96764)

12:29 AM HST on May 03, 2015 (GMT -1000)
Hamakua Coast | | Change Station
CLOSE
Current Station
Personal Weather Station
Location: Ninole, HI
Elevation: 1120 ft
Nearby Weather Stations

Elev 1120 ft 19.92 °N, 155.18 °W | Updated 1 minute ago

Light Rain
Light Rain Mist
65.9 °F
Feels Like 65.9 °F
N
0.0
Wind Variable Wind from SE

Today
High -- | Low -- °F
--% Chance of Precip.
Yesterday
High -- | Low -- °F
Precip. -- in
5:50 AM 6:45 PM
Waxing Gibbous, 99% visible
Pressure 30.06 in
Visibility 4.0 miles
Clouds Scattered Clouds 2600 ft
Mostly Cloudy 4000 ft
Overcast 6500 ft
Dew Point 64 °F
Humidity 94%
Rainfall 0.01 in
Snow Depth Not available.
UV 0 out of 12
Pollen Not available.
Air Quality Not available.
Flu Activity Regional
SPECI PHTO 031005Z 21006KT 4SM -RA BR SCT026 BKN040 OVC065 21/19 A3006 RMK AO2 P0003 T02110194

More Conditions Fewer Conditions

Pressure 30.06 in
Visibility 4.0 miles
Clouds Scattered Clouds 2600 ft
Mostly Cloudy 4000 ft
Overcast 6500 ft
Dew Point 64 °F
Humidity 94%
Rainfall 0.01 in
Snow Depth Not available.
UV 0 out of 12
Pollen Not available.
Air Quality Not available.
Flu Activity Regional
SPECI PHTO 031005Z 21006KT 4SM -RA BR SCT026 BKN040 OVC065 21/19 A3006 RMK AO2 P0003 T02110194

More Conditions Fewer Conditions

10-Day Weather Forecast

Almanac

Astronomy

May. 03, 2015 Rise Set
Actual Time
Civil Twilight
Nautical Twilight
Astronomical Twilight
Moon
Length of Visible Light
Length of Day
Tomorrow will be .
, % of the Moon is Illuminated

Today's Extremes

State Highs State Lows

Community

WunderPhotos

Upload Photos

1,818,187 photos uploaded!

WunderBlogs® & News

Nearby

Air Quality

  Air Quality AQ Index Pollutant
Not available.

Snow Depth

Station Depth Elevation

Earthquake Activity

City Distance Mag. Time & Date
Minimum magnitude displayed is 2.5.

Coastal Water Temperatures

Place Temperature

Stations

Nearby Weather Stations

Station Location Temp. Windchill Dew Point Humidity Wind Precip. Elev Updated Type